PWSweather.com
Personal Weather Stations
Station Observations
SPARKSRC
St. Petersburg, FL 33716

St. Petersburg, FL 33716

Lat: 27.876101, Lon: -82.657194

Elevation: 13

Station Type: Zephyr PWS-1000TD

High Low Average
Temperature 103.3°F39.6°F 75.0°F23.9°F 85.1°F29.5°F
Dew Point 85.2°F29.6°F 70.9°F21.6°F 76.1°F24.5°F
Winds 19.7 mph SW31.7 mph SW Calm Calm 5.9 mph 9.5 mph
Wind Gusts 32.0 mph51.5 mph 0.7 mph1.1 mph 9.7 mph15.6 mph
Humidity 87% 55% 76%
Pressure 29.96 in1014.60 in 29.88 in1011.90 in -
Precipitation 2.93 in74.40 in - -
Hour Temp Dew Point Humidity Winds Wind Gusts Pressure Precip Precip Rate Daily Precip Total
12:00 AM 78.4°F25.8°C 74.0°F23.3°C 86% 4.5 mph WSW7.2 kmh WSW 5.4 mph8.7 kmh 29.93 in1013.5 mb 0.00 in0.0 mm 0.00 in0.0 mm 0.00 in0.0 mm
12:05 AM 78.4°F25.8°C 74.0°F23.3°C 86% 6.9 mph WSW11.1 kmh WSW 8.3 mph13.4 kmh 29.93 in1013.5 mb 0.00 in0.0 mm 0.00 in0.0 mm 0.00 in0.0 mm
12:10 AM 78.4°F25.8°C 74.3°F23.5°C 87% 4.5 mph SW7.2 kmh SW 8.3 mph13.4 kmh 29.93 in1013.5 mb 0.00 in0.0 mm 0.00 in0.0 mm 0.00 in0.0 mm
12:15 AM 78.4°F25.8°C 74.3°F23.5°C 87% 4.5 mph SW7.2 kmh SW 7.6 mph12.2 kmh 29.93 in1013.5 mb 0.00 in0.0 mm 0.00 in0.0 mm 0.00 in0.0 mm
12:20 AM 78.4°F25.8°C 74.3°F23.5°C 87% 5.4 mph SW8.7 kmh SW 7.6 mph12.2 kmh 29.93 in1013.5 mb 0.00 in0.0 mm 0.00 in0.0 mm 0.00 in0.0 mm
12:25 AM 78.3°F25.7°C 74.1°F23.4°C 87% 4.5 mph SW7.2 kmh SW 7.6 mph12.2 kmh 29.94 in1013.9 mb 0.00 in0.0 mm 0.00 in0.0 mm 0.00 in0.0 mm
12:30 AM 78.3°F25.7°C 74.1°F23.4°C 87% 1.6 mph SW2.6 kmh SW 7.6 mph12.2 kmh 29.94 in1013.9 mb 0.00 in0.0 mm 0.00 in0.0 mm 0.00 in0.0 mm
12:35 AM 78.3°F25.7°C 74.1°F23.4°C 87% 0.7 mph SW1.1 kmh SW 6.0 mph9.7 kmh 29.94 in1013.9 mb 0.00 in0.0 mm 0.00 in0.0 mm 0.00 in0.0 mm
12:40 AM 78.3°F25.7°C 74.1°F23.4°C 87% Calm Calm 3.8 mph6.1 kmh 29.94 in1013.9 mb 0.00 in0.0 mm 0.00 in0.0 mm 0.00 in0.0 mm
12:45 AM 77.9°F25.5°C 73.8°F23.2°C 87% Calm Calm 2.2 mph3.5 kmh 29.93 in1013.5 mb 0.00 in0.0 mm 0.00 in0.0 mm 0.00 in0.0 mm
12:50 AM 77.9°F25.5°C 73.8°F23.2°C 87% Calm Calm 1.6 mph2.6 kmh 29.94 in1013.9 mb 0.00 in0.0 mm 0.00 in0.0 mm 0.00 in0.0 mm
12:55 AM 77.7°F25.4°C 73.6°F23.1°C 87% Calm Calm 1.6 mph2.6 kmh 29.94 in1013.9 mb 0.00 in0.0 mm 0.00 in0.0 mm 0.00 in0.0 mm
01:00 AM 77.7°F25.4°C 73.6°F23.1°C 87% Calm Calm 1.6 mph2.6 kmh 29.93 in1013.5 mb 0.00 in0.0 mm 0.00 in0.0 mm 0.00 in0.0 mm
01:05 AM 77.7°F25.4°C 73.6°F23.1°C 87% 0.7 mph SE1.1 kmh SE 2.2 mph3.5 kmh 29.93 in1013.5 mb 0.00 in0.0 mm 0.00 in0.0 mm 0.00 in0.0 mm
01:10 AM 77.5°F25.3°C 73.4°F23.0°C 87% 1.6 mph SE2.6 kmh SE 2.2 mph3.5 kmh 29.93 in1013.5 mb 0.00 in0.0 mm 0.00 in0.0 mm 0.00 in0.0 mm
01:15 AM 77.5°F25.3°C 73.4°F23.0°C 87% 0.7 mph ENE1.1 kmh ENE 2.2 mph3.5 kmh 29.93 in1013.5 mb 0.00 in0.0 mm 0.00 in0.0 mm 0.00 in0.0 mm
01:20 AM 77.4°F25.2°C 73.2°F22.9°C 87% 0.7 mph NNE1.1 kmh NNE 2.2 mph3.5 kmh 29.93 in1013.5 mb 0.00 in0.0 mm 0.00 in0.0 mm 0.00 in0.0 mm
01:25 AM 77.4°F25.2°C 73.2°F22.9°C 87% 0.7 mph NNW1.1 kmh NNW 1.6 mph2.6 kmh 29.93 in1013.5 mb 0.00 in0.0 mm 0.00 in0.0 mm 0.00 in0.0 mm
01:30 AM 77.2°F25.1°C 73.1°F22.8°C 87% 0.7 mph N1.1 kmh N 1.6 mph2.6 kmh 29.93 in1013.5 mb 0.00 in0.0 mm 0.00 in0.0 mm 0.00 in0.0 mm
01:35 AM 77.2°F25.1°C 73.1°F22.8°C 87% Calm Calm 1.6 mph2.6 kmh 29.93 in1013.5 mb 0.00 in0.0 mm 0.00 in0.0 mm 0.00 in0.0 mm
01:40 AM 77.0°F25.0°C 72.9°F22.7°C 87% Calm Calm 1.6 mph2.6 kmh 29.92 in1013.2 mb 0.00 in0.0 mm 0.00 in0.0 mm 0.00 in0.0 mm
01:45 AM 77.0°F25.0°C 72.9°F22.7°C 87% Calm Calm 0.7 mph1.1 kmh 29.92 in1013.2 mb 0.00 in0.0 mm 0.00 in0.0 mm 0.00 in0.0 mm
01:50 AM 77.0°F25.0°C 72.9°F22.7°C 87% 0.7 mph SE1.1 kmh SE 1.6 mph2.6 kmh 29.92 in1013.2 mb 0.00 in0.0 mm 0.00 in0.0 mm 0.00 in0.0 mm
01:55 AM 76.8°F24.9°C 72.7°F22.6°C 87% 0.7 mph SE1.1 kmh SE 1.6 mph2.6 kmh 29.92 in1013.2 mb 0.00 in0.0 mm 0.00 in0.0 mm 0.00 in0.0 mm
02:00 AM 77.0°F25.0°C 72.9°F22.7°C 87% 0.7 mph SE1.1 kmh SE 1.6 mph2.6 kmh 29.91 in1012.9 mb 0.00 in0.0 mm 0.00 in0.0 mm 0.00 in0.0 mm
02:05 AM 76.8°F24.9°C 72.7°F22.6°C 87% 1.6 mph S2.6 kmh S 2.2 mph3.5 kmh 29.92 in1013.2 mb 0.00 in0.0 mm 0.00 in0.0 mm 0.00 in0.0 mm
02:10 AM 76.6°F24.8°C 72.5°F22.5°C 87% 1.6 mph S2.6 kmh S 2.2 mph3.5 kmh 29.92 in1013.2 mb 0.00 in0.0 mm 0.00 in0.0 mm 0.00 in0.0 mm
02:15 AM 76.6°F24.8°C 72.5°F22.5°C 87% 1.6 mph S2.6 kmh S 2.2 mph3.5 kmh 29.91 in1012.9 mb 0.00 in0.0 mm 0.00 in0.0 mm 0.00 in0.0 mm
02:20 AM 76.6°F24.8°C 72.5°F22.5°C 87% 1.6 mph S2.6 kmh S 2.2 mph3.5 kmh 29.91 in1012.9 mb 0.00 in0.0 mm 0.00 in0.0 mm 0.00 in0.0 mm
02:25 AM 76.6°F24.8°C 72.5°F22.5°C 87% 2.2 mph S3.5 kmh S 3.8 mph6.1 kmh 29.92 in1013.2 mb 0.00 in0.0 mm 0.00 in0.0 mm 0.00 in0.0 mm
02:30 AM 76.5°F24.7°C 72.4°F22.4°C 87% 1.6 mph S2.6 kmh S 3.8 mph6.1 kmh 29.92 in1013.2 mb 0.00 in0.0 mm 0.00 in0.0 mm 0.00 in0.0 mm
02:35 AM 76.5°F24.7°C 72.4°F22.4°C 87% 1.6 mph S2.6 kmh S 3.8 mph6.1 kmh 29.92 in1013.2 mb 0.00 in0.0 mm 0.00 in0.0 mm 0.00 in0.0 mm
02:40 AM 76.5°F24.7°C 72.4°F22.4°C 87% 2.2 mph SSW3.5 kmh SSW 3.1 mph5.0 kmh 29.92 in1013.2 mb 0.00 in0.0 mm 0.00 in0.0 mm 0.00 in0.0 mm
02:45 AM 76.3°F24.6°C 72.2°F22.3°C 87% 2.2 mph SW3.5 kmh SW 3.8 mph6.1 kmh 29.92 in1013.2 mb 0.00 in0.0 mm 0.00 in0.0 mm 0.00 in0.0 mm
02:50 AM 76.3°F24.6°C 72.2°F22.3°C 87% 1.6 mph SW2.6 kmh SW 3.8 mph6.1 kmh 29.92 in1013.2 mb 0.00 in0.0 mm 0.00 in0.0 mm 0.00 in0.0 mm
02:55 AM 76.3°F24.6°C 72.2°F22.3°C 87% 0.7 mph S1.1 kmh S 3.8 mph6.1 kmh 29.91 in1012.9 mb 0.00 in0.0 mm 0.00 in0.0 mm 0.00 in0.0 mm
03:00 AM 76.1°F24.5°C 72.0°F22.2°C 87% Calm Calm 2.2 mph3.5 kmh 29.91 in1012.9 mb 0.00 in0.0 mm 0.00 in0.0 mm 0.00 in0.0 mm
03:05 AM 76.1°F24.5°C 72.0°F22.2°C 87% 0.7 mph S1.1 kmh S 2.2 mph3.5 kmh 29.91 in1012.9 mb 0.00 in0.0 mm 0.00 in0.0 mm 0.00 in0.0 mm
03:10 AM 75.9°F24.4°C 71.8°F22.1°C 87% Calm Calm 1.6 mph2.6 kmh 29.91 in1012.9 mb 0.00 in0.0 mm 0.00 in0.0 mm 0.00 in0.0 mm
03:15 AM 75.9°F24.4°C 71.8°F22.1°C 87% Calm Calm 1.6 mph2.6 kmh 29.91 in1012.9 mb 0.00 in0.0 mm 0.00 in0.0 mm 0.00 in0.0 mm
03:20 AM 75.9°F24.4°C 71.8°F22.1°C 87% Calm Calm 0.7 mph1.1 kmh 29.91 in1012.9 mb 0.00 in0.0 mm 0.00 in0.0 mm 0.00 in0.0 mm
03:25 AM 75.9°F24.4°C 71.8°F22.1°C 87% 0.7 mph S1.1 kmh S 1.6 mph2.6 kmh 29.91 in1012.9 mb 0.00 in0.0 mm 0.00 in0.0 mm 0.00 in0.0 mm
03:30 AM 75.7°F24.3°C 71.6°F22.0°C 87% Calm Calm 1.6 mph2.6 kmh 29.91 in1012.9 mb 0.00 in0.0 mm 0.00 in0.0 mm 0.00 in0.0 mm
03:35 AM 75.7°F24.3°C 71.6°F22.0°C 87% Calm Calm 1.6 mph2.6 kmh 29.90 in1012.5 mb 0.00 in0.0 mm 0.00 in0.0 mm 0.00 in0.0 mm
03:40 AM 75.7°F24.3°C 71.6°F22.0°C 87% Calm Calm 1.6 mph2.6 kmh 29.90 in1012.5 mb 0.00 in0.0 mm 0.00 in0.0 mm 0.00 in0.0 mm
03:45 AM 75.6°F24.2°C 71.5°F21.9°C 87% Calm Calm 1.6 mph2.6 kmh 29.90 in1012.5 mb 0.00 in0.0 mm 0.00 in0.0 mm 0.00 in0.0 mm
03:50 AM 75.4°F24.1°C 71.3°F21.8°C 87% Calm Calm 1.6 mph2.6 kmh 29.91 in1012.9 mb 0.00 in0.0 mm 0.00 in0.0 mm 0.00 in0.0 mm
03:55 AM 75.4°F24.1°C 71.3°F21.8°C 87% Calm Calm 1.6 mph2.6 kmh 29.91 in1012.9 mb 0.00 in0.0 mm 0.00 in0.0 mm 0.00 in0.0 mm
04:00 AM 75.6°F24.2°C 71.5°F21.9°C 87% Calm Calm 0.7 mph1.1 kmh 29.90 in1012.5 mb 0.00 in0.0 mm 0.00 in0.0 mm 0.00 in0.0 mm
04:05 AM 75.4°F24.1°C 71.3°F21.8°C 87% 0.7 mph SSE1.1 kmh SSE 1.6 mph2.6 kmh 29.91 in1012.9 mb 0.00 in0.0 mm 0.00 in0.0 mm 0.00 in0.0 mm
04:10 AM 75.4°F24.1°C 71.3°F21.8°C 87% 0.7 mph SE1.1 kmh SE 1.6 mph2.6 kmh 29.90 in1012.5 mb 0.00 in0.0 mm 0.00 in0.0 mm 0.00 in0.0 mm
04:15 AM 75.4°F24.1°C 71.3°F21.8°C 87% 0.7 mph SE1.1 kmh SE 1.6 mph2.6 kmh 29.90 in1012.5 mb 0.00 in0.0 mm 0.00 in0.0 mm 0.00 in0.0 mm
04:20 AM 75.4°F24.1°C 71.3°F21.8°C 87% 2.2 mph SE3.5 kmh SE 3.1 mph5.0 kmh 29.91 in1012.9 mb 0.00 in0.0 mm 0.00 in0.0 mm 0.00 in0.0 mm
04:25 AM 75.6°F24.2°C 71.5°F21.9°C 87% 1.6 mph SE2.6 kmh SE 3.1 mph5.0 kmh 29.91 in1012.9 mb 0.00 in0.0 mm 0.00 in0.0 mm 0.00 in0.0 mm
04:30 AM 75.6°F24.2°C 71.5°F21.9°C 87% 1.6 mph SE2.6 kmh SE 3.1 mph5.0 kmh 29.91 in1012.9 mb 0.00 in0.0 mm 0.00 in0.0 mm 0.00 in0.0 mm
04:35 AM 75.6°F24.2°C 71.5°F21.9°C 87% 1.6 mph SSE2.6 kmh SSE 3.1 mph5.0 kmh 29.91 in1012.9 mb 0.00 in0.0 mm 0.00 in0.0 mm 0.00 in0.0 mm
04:40 AM 75.7°F24.3°C 71.6°F22.0°C 87% 0.7 mph S1.1 kmh S 3.1 mph5.0 kmh 29.91 in1012.9 mb 0.00 in0.0 mm 0.00 in0.0 mm 0.00 in0.0 mm
04:45 AM 75.7°F24.3°C 71.6°F22.0°C 87% Calm Calm 3.1 mph5.0 kmh 29.90 in1012.5 mb 0.00 in0.0 mm 0.00 in0.0 mm 0.00 in0.0 mm
04:50 AM 75.7°F24.3°C 71.6°F22.0°C 87% Calm Calm 1.6 mph2.6 kmh 29.90 in1012.5 mb 0.00 in0.0 mm 0.00 in0.0 mm 0.00 in0.0 mm
04:55 AM 75.6°F24.2°C 71.5°F21.9°C 87% Calm Calm 1.6 mph2.6 kmh 29.90 in1012.5 mb 0.00 in0.0 mm 0.00 in0.0 mm 0.00 in0.0 mm
05:00 AM 75.6°F24.2°C 71.5°F21.9°C 87% Calm Calm 1.6 mph2.6 kmh 29.90 in1012.5 mb 0.00 in0.0 mm 0.00 in0.0 mm 0.00 in0.0 mm
05:05 AM 75.6°F24.2°C 71.5°F21.9°C 87% Calm Calm 1.6 mph2.6 kmh 29.90 in1012.5 mb 0.00 in0.0 mm 0.00 in0.0 mm 0.00 in0.0 mm
05:10 AM 75.6°F24.2°C 71.5°F21.9°C 87% Calm Calm 1.6 mph2.6 kmh 29.90 in1012.5 mb 0.00 in0.0 mm 0.00 in0.0 mm 0.00 in0.0 mm
05:15 AM 75.4°F24.1°C 71.3°F21.8°C 87% 0.7 mph WSW1.1 kmh WSW 1.6 mph2.6 kmh 29.90 in1012.5 mb 0.00 in0.0 mm 0.00 in0.0 mm 0.00 in0.0 mm
05:20 AM 75.6°F24.2°C 71.5°F21.9°C 87% 1.6 mph SW2.6 kmh SW 2.2 mph3.5 kmh 29.90 in1012.5 mb 0.00 in0.0 mm 0.00 in0.0 mm 0.00 in0.0 mm
05:25 AM 75.4°F24.1°C 71.3°F21.8°C 87% 2.2 mph SW3.5 kmh SW 3.1 mph5.0 kmh 29.91 in1012.9 mb 0.00 in0.0 mm 0.00 in0.0 mm 0.00 in0.0 mm
05:30 AM 75.4°F24.1°C 71.3°F21.8°C 87% 2.2 mph SSW3.5 kmh SSW 3.1 mph5.0 kmh 29.90 in1012.5 mb 0.00 in0.0 mm 0.00 in0.0 mm 0.00 in0.0 mm
05:35 AM 75.4°F24.1°C 71.3°F21.8°C 87% 1.6 mph S2.6 kmh S 3.1 mph5.0 kmh 29.90 in1012.5 mb 0.00 in0.0 mm 0.00 in0.0 mm 0.00 in0.0 mm
05:40 AM 75.4°F24.1°C 71.3°F21.8°C 87% Calm Calm 3.1 mph5.0 kmh 29.90 in1012.5 mb 0.00 in0.0 mm 0.00 in0.0 mm 0.00 in0.0 mm
05:45 AM 75.2°F24.0°C 71.1°F21.7°C 87% 0.7 mph SSW1.1 kmh SSW 2.2 mph3.5 kmh 29.90 in1012.5 mb 0.00 in0.0 mm 0.00 in0.0 mm 0.00 in0.0 mm
05:50 AM 75.2°F24.0°C 71.1°F21.7°C 87% 1.6 mph SW2.6 kmh SW 2.2 mph3.5 kmh 29.90 in1012.5 mb 0.00 in0.0 mm 0.00 in0.0 mm 0.00 in0.0 mm
05:55 AM 75.2°F24.0°C 71.1°F21.7°C 87% 2.2 mph SW3.5 kmh SW 3.1 mph5.0 kmh 29.90 in1012.5 mb 0.00 in0.0 mm 0.00 in0.0 mm 0.00 in0.0 mm
06:00 AM 75.2°F24.0°C 71.1°F21.7°C 87% 1.6 mph SW2.6 kmh SW 3.1 mph5.0 kmh 29.91 in1012.9 mb 0.00 in0.0 mm 0.00 in0.0 mm 0.00 in0.0 mm
06:05 AM 75.2°F24.0°C 71.1°F21.7°C 87% 2.2 mph S3.5 kmh S 3.1 mph5.0 kmh 29.90 in1012.5 mb 0.00 in0.0 mm 0.00 in0.0 mm 0.00 in0.0 mm
06:10 AM 75.0°F23.9°C 70.9°F21.6°C 87% 2.2 mph S3.5 kmh S 3.1 mph5.0 kmh 29.90 in1012.5 mb 0.00 in0.0 mm 0.00 in0.0 mm 0.00 in0.0 mm
06:15 AM 75.2°F24.0°C 71.1°F21.7°C 87% 2.2 mph S3.5 kmh S 3.1 mph5.0 kmh 29.90 in1012.5 mb 0.00 in0.0 mm 0.00 in0.0 mm 0.00 in0.0 mm
06:20 AM 75.0°F23.9°C 70.9°F21.6°C 87% 1.6 mph S2.6 kmh S 3.1 mph5.0 kmh 29.90 in1012.5 mb 0.00 in0.0 mm 0.00 in0.0 mm 0.00 in0.0 mm
06:25 AM 75.0°F23.9°C 70.9°F21.6°C 87% 1.6 mph S2.6 kmh S 3.1 mph5.0 kmh 29.90 in1012.5 mb 0.00 in0.0 mm 0.00 in0.0 mm 0.00 in0.0 mm
06:30 AM 75.0°F23.9°C 70.9°F21.6°C 87% 2.2 mph S3.5 kmh S 3.1 mph5.0 kmh 29.90 in1012.5 mb 0.00 in0.0 mm 0.00 in0.0 mm 0.00 in0.0 mm
06:35 AM 75.2°F24.0°C 71.1°F21.7°C 87% 1.6 mph S2.6 kmh S 3.1 mph5.0 kmh 29.91 in1012.9 mb 0.00 in0.0 mm 0.00 in0.0 mm 0.00 in0.0 mm
06:40 AM 75.0°F23.9°C 70.9°F21.6°C 87% 1.6 mph S2.6 kmh S 3.1 mph5.0 kmh 29.91 in1012.9 mb 0.00 in0.0 mm 0.00 in0.0 mm 0.00 in0.0 mm
06:45 AM 75.2°F24.0°C 71.1°F21.7°C 87% 0.7 mph S1.1 kmh S 2.2 mph3.5 kmh 29.91 in1012.9 mb 0.00 in0.0 mm 0.00 in0.0 mm 0.00 in0.0 mm
06:50 AM 75.0°F23.9°C 70.9°F21.6°C 87% 0.7 mph S1.1 kmh S 2.2 mph3.5 kmh 29.91 in1012.9 mb 0.00 in0.0 mm 0.00 in0.0 mm 0.00 in0.0 mm
06:55 AM 75.0°F23.9°C 70.9°F21.6°C 87% 0.7 mph S1.1 kmh S 2.2 mph3.5 kmh 29.91 in1012.9 mb 0.00 in0.0 mm 0.00 in0.0 mm 0.00 in0.0 mm
07:00 AM 75.2°F24.0°C 71.1°F21.7°C 87% 0.7 mph S1.1 kmh S 2.2 mph3.5 kmh 29.91 in1012.9 mb 0.00 in0.0 mm 0.00 in0.0 mm 0.00 in0.0 mm
07:05 AM 75.0°F23.9°C 70.9°F21.6°C 87% 0.7 mph S1.1 kmh S 2.2 mph3.5 kmh 29.91 in1012.9 mb 0.00 in0.0 mm 0.00 in0.0 mm 0.00 in0.0 mm
07:10 AM 75.2°F24.0°C 71.1°F21.7°C 87% 1.6 mph S2.6 kmh S 3.1 mph5.0 kmh 29.91 in1012.9 mb 0.00 in0.0 mm 0.00 in0.0 mm 0.00 in0.0 mm
07:15 AM 75.4°F24.1°C 71.3°F21.8°C 87% 1.6 mph S2.6 kmh S 3.1 mph5.0 kmh 29.92 in1013.2 mb 0.00 in0.0 mm 0.00 in0.0 mm 0.00 in0.0 mm
07:20 AM 75.6°F24.2°C 71.5°F21.9°C 87% 2.2 mph S3.5 kmh S 3.8 mph6.1 kmh 29.92 in1013.2 mb 0.00 in0.0 mm 0.00 in0.0 mm 0.00 in0.0 mm
07:25 AM 75.9°F24.4°C 71.8°F22.1°C 87% 0.7 mph S1.1 kmh S 3.8 mph6.1 kmh 29.91 in1012.9 mb 0.00 in0.0 mm 0.00 in0.0 mm 0.00 in0.0 mm
07:30 AM 76.3°F24.6°C 72.2°F22.3°C 87% 1.6 mph S2.6 kmh S 3.1 mph5.0 kmh 29.92 in1013.2 mb 0.00 in0.0 mm 0.00 in0.0 mm 0.00 in0.0 mm
07:35 AM 76.5°F24.7°C 72.4°F22.4°C 87% 1.6 mph S2.6 kmh S 2.2 mph3.5 kmh 29.92 in1013.2 mb 0.00 in0.0 mm 0.00 in0.0 mm 0.00 in0.0 mm
07:40 AM 77.2°F25.1°C 73.1°F22.8°C 87% 0.7 mph S1.1 kmh S 2.2 mph3.5 kmh 29.93 in1013.5 mb 0.00 in0.0 mm 0.00 in0.0 mm 0.00 in0.0 mm
07:45 AM 77.9°F25.5°C 73.8°F23.2°C 87% 0.7 mph S1.1 kmh S 2.2 mph3.5 kmh 29.93 in1013.5 mb 0.00 in0.0 mm 0.00 in0.0 mm 0.00 in0.0 mm
07:50 AM 78.6°F25.9°C 74.1°F23.4°C 86% 0.7 mph SSE1.1 kmh SSE 2.2 mph3.5 kmh 29.93 in1013.5 mb 0.00 in0.0 mm 0.00 in0.0 mm 0.00 in0.0 mm
07:55 AM 79.2°F26.2°C 74.7°F23.7°C 86% 1.6 mph SSE2.6 kmh SSE 3.1 mph5.0 kmh 29.92 in1013.2 mb 0.00 in0.0 mm 0.00 in0.0 mm 0.00 in0.0 mm
08:00 AM 79.7°F26.5°C 74.8°F23.8°C 85% 2.2 mph SE3.5 kmh SE 3.8 mph6.1 kmh 29.92 in1013.2 mb 0.00 in0.0 mm 0.00 in0.0 mm 0.00 in0.0 mm
08:05 AM 80.2°F26.8°C 75.4°F24.1°C 85% 2.2 mph SE3.5 kmh SE 4.5 mph7.2 kmh 29.93 in1013.5 mb 0.00 in0.0 mm 0.00 in0.0 mm 0.00 in0.0 mm
08:10 AM 80.8°F27.1°C 75.6°F24.2°C 84% 3.1 mph S5.0 kmh S 4.5 mph7.2 kmh 29.93 in1013.5 mb 0.00 in0.0 mm 0.00 in0.0 mm 0.00 in0.0 mm
08:15 AM 81.1°F27.3°C 75.9°F24.4°C 84% 4.5 mph S7.2 kmh S 5.4 mph8.7 kmh 29.93 in1013.5 mb 0.00 in0.0 mm 0.00 in0.0 mm 0.00 in0.0 mm
08:20 AM 81.3°F27.4°C 76.1°F24.5°C 84% 3.8 mph S6.1 kmh S 5.4 mph8.7 kmh 29.93 in1013.5 mb 0.00 in0.0 mm 0.00 in0.0 mm 0.00 in0.0 mm
08:25 AM 81.7°F27.6°C 76.1°F24.5°C 83% 3.8 mph S6.1 kmh S 5.4 mph8.7 kmh 29.93 in1013.5 mb 0.00 in0.0 mm 0.00 in0.0 mm 0.00 in0.0 mm
08:30 AM 82.2°F27.9°C 77.0°F25.0°C 84% 4.5 mph S7.2 kmh S 6.0 mph9.7 kmh 29.94 in1013.9 mb 0.00 in0.0 mm 0.00 in0.0 mm 0.00 in0.0 mm
08:35 AM 83.1°F28.4°C 77.5°F25.3°C 83% 3.8 mph S6.1 kmh S 6.0 mph9.7 kmh 29.94 in1013.9 mb 0.00 in0.0 mm 0.00 in0.0 mm 0.00 in0.0 mm
08:40 AM 84.0°F28.9°C 78.4°F25.8°C 83% 6.0 mph S9.7 kmh S 7.6 mph12.2 kmh 29.94 in1013.9 mb 0.00 in0.0 mm 0.00 in0.0 mm 0.00 in0.0 mm
08:45 AM 84.6°F29.2°C 78.5°F25.8°C 82% 5.4 mph S8.7 kmh S 7.6 mph12.2 kmh 29.93 in1013.5 mb 0.00 in0.0 mm 0.00 in0.0 mm 0.00 in0.0 mm
08:50 AM 85.5°F29.7°C 79.0°F26.1°C 81% 5.4 mph S8.7 kmh S 7.6 mph12.2 kmh 29.94 in1013.9 mb 0.00 in0.0 mm 0.00 in0.0 mm 0.00 in0.0 mm
08:55 AM 86.4°F30.2°C 79.5°F26.4°C 80% 4.5 mph S7.2 kmh S 7.6 mph12.2 kmh 29.94 in1013.9 mb 0.00 in0.0 mm 0.00 in0.0 mm 0.00 in0.0 mm
09:00 AM 87.4°F30.8°C 80.2°F26.8°C 79% 5.4 mph S8.7 kmh S 7.6 mph12.2 kmh 29.94 in1013.9 mb 0.00 in0.0 mm 0.00 in0.0 mm 0.00 in0.0 mm
09:05 AM 88.3°F31.3°C 80.7°F27.1°C 78% 6.0 mph S9.7 kmh S 7.6 mph12.2 kmh 29.94 in1013.9 mb 0.00 in0.0 mm 0.00 in0.0 mm 0.00 in0.0 mm
09:10 AM 88.9°F31.6°C 80.8°F27.1°C 77% 6.0 mph S9.7 kmh S 8.3 mph13.4 kmh 29.94 in1013.9 mb 0.00 in0.0 mm 0.00 in0.0 mm 0.00 in0.0 mm
09:15 AM 89.6°F32.0°C 81.1°F27.3°C 76% 6.0 mph S9.7 kmh S 8.3 mph13.4 kmh 29.94 in1013.9 mb 0.00 in0.0 mm 0.00 in0.0 mm 0.00 in0.0 mm
09:20 AM 90.3°F32.4°C 81.4°F27.4°C 75% 5.4 mph S8.7 kmh S 8.3 mph13.4 kmh 29.94 in1013.9 mb 0.00 in0.0 mm 0.00 in0.0 mm 0.00 in0.0 mm
09:25 AM 91.0°F32.8°C 81.7°F27.6°C 74% 4.5 mph S7.2 kmh S 9.2 mph14.8 kmh 29.94 in1013.9 mb 0.00 in0.0 mm 0.00 in0.0 mm 0.00 in0.0 mm
09:30 AM 91.4°F33.0°C 81.6°F27.6°C 73% 4.5 mph SW7.2 kmh SW 9.2 mph14.8 kmh 29.94 in1013.9 mb 0.00 in0.0 mm 0.00 in0.0 mm 0.00 in0.0 mm
09:35 AM 91.8°F33.2°C 82.0°F27.8°C 73% 6.9 mph SSW11.1 kmh SSW 9.8 mph15.8 kmh 29.94 in1013.9 mb 0.00 in0.0 mm 0.00 in0.0 mm 0.00 in0.0 mm
09:40 AM 91.6°F33.1°C 81.8°F27.7°C 73% 6.9 mph S11.1 kmh S 9.8 mph15.8 kmh 29.94 in1013.9 mb 0.00 in0.0 mm 0.00 in0.0 mm 0.00 in0.0 mm
09:45 AM 91.2°F32.9°C 81.4°F27.4°C 73% 6.9 mph S11.1 kmh S 11.4 mph18.3 kmh 29.94 in1013.9 mb 0.00 in0.0 mm 0.00 in0.0 mm 0.00 in0.0 mm
09:50 AM 91.8°F33.2°C 82.0°F27.8°C 73% 9.8 mph S15.8 kmh S 12.1 mph19.5 kmh 29.95 in1014.2 mb 0.00 in0.0 mm 0.00 in0.0 mm 0.00 in0.0 mm
09:55 AM 92.3°F33.5°C 82.5°F28.1°C 73% 9.8 mph S15.8 kmh S 13.0 mph20.9 kmh 29.94 in1013.9 mb 0.00 in0.0 mm 0.00 in0.0 mm 0.00 in0.0 mm
10:00 AM 93.0°F33.9°C 82.7°F28.2°C 72% 9.2 mph S14.8 kmh S 13.0 mph20.9 kmh 29.94 in1013.9 mb 0.00 in0.0 mm 0.00 in0.0 mm 0.00 in0.0 mm
10:05 AM 93.9°F34.4°C 83.2°F28.4°C 71% 6.9 mph S11.1 kmh S 12.1 mph19.5 kmh 29.95 in1014.2 mb 0.00 in0.0 mm 0.00 in0.0 mm 0.00 in0.0 mm
10:10 AM 94.6°F34.8°C 83.0°F28.3°C 69% 9.2 mph S14.8 kmh S 13.6 mph21.9 kmh 29.95 in1014.2 mb 0.00 in0.0 mm 0.00 in0.0 mm 0.00 in0.0 mm
10:15 AM 93.4°F34.1°C 81.8°F27.7°C 69% 10.7 mph SSW17.2 kmh SSW 14.5 mph23.3 kmh 29.95 in1014.2 mb 0.00 in0.0 mm 0.00 in0.0 mm 0.00 in0.0 mm
10:20 AM 92.3°F33.5°C 81.2°F27.3°C 70% 9.8 mph SW15.8 kmh SW 14.5 mph23.3 kmh 29.95 in1014.2 mb 0.00 in0.0 mm 0.00 in0.0 mm 0.00 in0.0 mm
10:25 AM 91.2°F32.9°C 80.6°F27.0°C 71% 9.8 mph SW15.8 kmh SW 14.5 mph23.3 kmh 29.95 in1014.2 mb 0.00 in0.0 mm 0.00 in0.0 mm 0.00 in0.0 mm
10:30 AM 90.5°F32.5°C 80.3°F26.8°C 72% 8.3 mph SW13.4 kmh SW 13.6 mph21.9 kmh 29.95 in1014.2 mb 0.00 in0.0 mm 0.00 in0.0 mm 0.00 in0.0 mm
10:35 AM 90.0°F32.2°C 80.2°F26.8°C 73% 11.4 mph SW18.3 kmh SW 15.9 mph25.6 kmh 29.95 in1014.2 mb 0.00 in0.0 mm 0.00 in0.0 mm 0.00 in0.0 mm
10:40 AM 89.6°F32.0°C 79.9°F26.6°C 73% 13.6 mph SW21.9 kmh SW 19.0 mph30.6 kmh 29.95 in1014.2 mb 0.00 in0.0 mm 0.00 in0.0 mm 0.00 in0.0 mm
10:45 AM 89.6°F32.0°C 80.3°F26.8°C 74% 10.7 mph SW17.2 kmh SW 19.0 mph30.6 kmh 29.95 in1014.2 mb 0.00 in0.0 mm 0.00 in0.0 mm 0.00 in0.0 mm
10:50 AM 90.9°F32.7°C 81.5°F27.5°C 74% 9.2 mph SW14.8 kmh SW 17.4 mph28.0 kmh 29.95 in1014.2 mb 0.00 in0.0 mm 0.00 in0.0 mm 0.00 in0.0 mm
10:55 AM 92.1°F33.4°C 81.9°F27.7°C 72% 10.7 mph SW17.2 kmh SW 16.8 mph27.0 kmh 29.96 in1014.6 mb 0.00 in0.0 mm 0.00 in0.0 mm 0.00 in0.0 mm
11:00 AM 93.6°F34.2°C 82.8°F28.2°C 71% 12.1 mph SW19.5 kmh SW 15.9 mph25.6 kmh 29.95 in1014.2 mb 0.00 in0.0 mm 0.00 in0.0 mm 0.00 in0.0 mm
11:05 AM 94.6°F34.8°C 83.0°F28.3°C 69% 11.4 mph SW18.3 kmh SW 15.9 mph25.6 kmh 29.96 in1014.6 mb 0.00 in0.0 mm 0.00 in0.0 mm 0.00 in0.0 mm
11:10 AM 96.1°F35.6°C 83.4°F28.6°C 67% 8.3 mph SW13.4 kmh SW 15.9 mph25.6 kmh 29.95 in1014.2 mb 0.00 in0.0 mm 0.00 in0.0 mm 0.00 in0.0 mm
11:15 AM 96.8°F36.0°C 83.2°F28.4°C 65% 9.8 mph SW15.8 kmh SW 14.5 mph23.3 kmh 29.95 in1014.2 mb 0.00 in0.0 mm 0.00 in0.0 mm 0.00 in0.0 mm
11:20 AM 97.0°F36.1°C 82.9°F28.3°C 64% 9.2 mph SW14.8 kmh SW 14.5 mph23.3 kmh 29.96 in1014.6 mb 0.00 in0.0 mm 0.00 in0.0 mm 0.00 in0.0 mm
11:25 AM 96.6°F35.9°C 82.1°F27.8°C 63% 6.9 mph SW11.1 kmh SW 13.6 mph21.9 kmh 29.95 in1014.2 mb 0.00 in0.0 mm 0.00 in0.0 mm 0.00 in0.0 mm
11:30 AM 96.4°F35.8°C 82.4°F28.0°C 64% 9.2 mph SW14.8 kmh SW 13.0 mph20.9 kmh 29.96 in1014.6 mb 0.00 in0.0 mm 0.00 in0.0 mm 0.00 in0.0 mm
11:35 AM 96.4°F35.8°C 81.9°F27.7°C 63% 9.8 mph WSW15.8 kmh WSW 13.6 mph21.9 kmh 29.96 in1014.6 mb 0.00 in0.0 mm 0.00 in0.0 mm 0.00 in0.0 mm
11:40 AM 96.1°F35.6°C 81.5°F27.5°C 63% 6.0 mph SW9.7 kmh SW 13.6 mph21.9 kmh 29.95 in1014.2 mb 0.00 in0.0 mm 0.00 in0.0 mm 0.00 in0.0 mm
11:45 AM 96.8°F36.0°C 82.7°F28.2°C 64% 9.2 mph SW14.8 kmh SW 13.6 mph21.9 kmh 29.96 in1014.6 mb 0.00 in0.0 mm 0.00 in0.0 mm 0.00 in0.0 mm
11:50 AM 98.6°F37.0°C 83.4°F28.6°C 62% 7.6 mph SW12.2 kmh SW 13.6 mph21.9 kmh 29.95 in1014.2 mb 0.00 in0.0 mm 0.00 in0.0 mm 0.00 in0.0 mm
11:55 AM 99.9°F37.7°C 83.6°F28.7°C 60% 11.4 mph WSW18.3 kmh WSW 14.5 mph23.3 kmh 29.95 in1014.2 mb 0.00 in0.0 mm 0.00 in0.0 mm 0.00 in0.0 mm
12:00 PM 100.0°F37.8°C 83.2°F28.4°C 59% 10.7 mph WSW17.2 kmh WSW 14.5 mph23.3 kmh 29.96 in1014.6 mb 0.00 in0.0 mm 0.00 in0.0 mm 0.00 in0.0 mm
12:05 PM 100.4°F38.0°C 83.6°F28.7°C 59% 9.2 mph WSW14.8 kmh WSW 13.6 mph21.9 kmh 29.96 in1014.6 mb 0.00 in0.0 mm 0.00 in0.0 mm 0.00 in0.0 mm
12:10 PM 101.7°F38.7°C 84.2°F29.0°C 58% 13.0 mph WSW20.9 kmh WSW 15.2 mph24.5 kmh 29.96 in1014.6 mb 0.00 in0.0 mm 0.00 in0.0 mm 0.00 in0.0 mm
12:15 PM 102.0°F38.9°C 84.0°F28.9°C 57% 9.2 mph WSW14.8 kmh WSW 15.2 mph24.5 kmh 29.95 in1014.2 mb 0.00 in0.0 mm 0.00 in0.0 mm 0.00 in0.0 mm
12:20 PM 100.9°F38.3°C 83.0°F28.3°C 57% 12.1 mph WSW19.5 kmh WSW 15.9 mph25.6 kmh 29.95 in1014.2 mb 0.00 in0.0 mm 0.00 in0.0 mm 0.00 in0.0 mm
12:25 PM 100.0°F37.8°C 82.7°F28.2°C 58% 9.2 mph WSW14.8 kmh WSW 15.9 mph25.6 kmh 29.95 in1014.2 mb 0.00 in0.0 mm 0.00 in0.0 mm 0.00 in0.0 mm
12:30 PM 100.4°F38.0°C 83.6°F28.7°C 59% 6.9 mph WSW11.1 kmh WSW 15.2 mph24.5 kmh 29.95 in1014.2 mb 0.00 in0.0 mm 0.00 in0.0 mm 0.00 in0.0 mm
12:35 PM 102.0°F38.9°C 84.6°F29.2°C 58% 12.1 mph SW19.5 kmh SW 15.2 mph24.5 kmh 29.94 in1013.9 mb 0.00 in0.0 mm 0.00 in0.0 mm 0.00 in0.0 mm
12:40 PM 103.3°F39.6°C 85.2°F29.6°C 57% 9.2 mph SW14.8 kmh SW 15.2 mph24.5 kmh 29.94 in1013.9 mb 0.00 in0.0 mm 0.00 in0.0 mm 0.00 in0.0 mm
12:45 PM 101.8°F38.8°C 83.3°F28.5°C 56% 11.4 mph SW18.3 kmh SW 15.2 mph24.5 kmh 29.93 in1013.5 mb 0.00 in0.0 mm 0.00 in0.0 mm 0.00 in0.0 mm
12:50 PM 99.3°F37.4°C 82.6°F28.1°C 59% 7.6 mph SW12.2 kmh SW 15.2 mph24.5 kmh 29.94 in1013.9 mb 0.00 in0.0 mm 0.00 in0.0 mm 0.00 in0.0 mm
12:55 PM 98.8°F37.1°C 83.1°F28.4°C 61% 9.8 mph SW15.8 kmh SW 16.8 mph27.0 kmh 29.94 in1013.9 mb 0.00 in0.0 mm 0.00 in0.0 mm 0.00 in0.0 mm
01:00 PM 99.0°F37.2°C 83.3°F28.5°C 61% 7.6 mph SW12.2 kmh SW 16.8 mph27.0 kmh 29.94 in1013.9 mb 0.00 in0.0 mm 0.00 in0.0 mm 0.00 in0.0 mm
01:05 PM 100.4°F38.0°C 84.1°F28.9°C 60% 8.3 mph SW13.4 kmh SW 12.1 mph19.5 kmh 29.94 in1013.9 mb 0.00 in0.0 mm 0.00 in0.0 mm 0.00 in0.0 mm
01:10 PM 101.5°F38.6°C 84.1°F28.9°C 58% 13.0 mph SW20.9 kmh SW 15.9 mph25.6 kmh 29.94 in1013.9 mb 0.00 in0.0 mm 0.00 in0.0 mm 0.00 in0.0 mm
01:15 PM 99.3°F37.4°C 82.6°F28.1°C 59% 10.7 mph SW17.2 kmh SW 15.9 mph25.6 kmh 29.93 in1013.5 mb 0.00 in0.0 mm 0.00 in0.0 mm 0.00 in0.0 mm
01:20 PM 97.5°F36.4°C 81.9°F27.7°C 61% 8.3 mph SW13.4 kmh SW 15.2 mph24.5 kmh 29.93 in1013.5 mb 0.00 in0.0 mm 0.00 in0.0 mm 0.00 in0.0 mm
01:25 PM 98.2°F36.8°C 83.1°F28.4°C 62% 9.8 mph SW15.8 kmh SW 14.5 mph23.3 kmh 29.93 in1013.5 mb 0.00 in0.0 mm 0.00 in0.0 mm 0.00 in0.0 mm
01:30 PM 99.9°F37.7°C 83.6°F28.7°C 60% 9.8 mph SW15.8 kmh SW 15.9 mph25.6 kmh 29.93 in1013.5 mb 0.00 in0.0 mm 0.00 in0.0 mm 0.00 in0.0 mm
01:35 PM 101.1°F38.4°C 84.3°F29.1°C 59% 9.8 mph SW15.8 kmh SW 15.9 mph25.6 kmh 29.93 in1013.5 mb 0.00 in0.0 mm 0.00 in0.0 mm 0.00 in0.0 mm
01:40 PM 101.8°F38.8°C 84.4°F29.1°C 58% 11.4 mph WSW18.3 kmh WSW 16.8 mph27.0 kmh 29.93 in1013.5 mb 0.00 in0.0 mm 0.00 in0.0 mm 0.00 in0.0 mm
01:45 PM 102.0°F38.9°C 84.0°F28.9°C 57% 14.5 mph SW23.3 kmh SW 17.4 mph28.0 kmh 29.93 in1013.5 mb 0.00 in0.0 mm 0.00 in0.0 mm 0.00 in0.0 mm
01:50 PM 102.0°F38.9°C 84.0°F28.9°C 57% 13.0 mph SW20.9 kmh SW 18.3 mph29.5 kmh 29.93 in1013.5 mb 0.00 in0.0 mm 0.00 in0.0 mm 0.00 in0.0 mm
01:55 PM 101.7°F38.7°C 83.7°F28.7°C 57% 14.5 mph SW23.3 kmh SW 20.6 mph33.2 kmh 29.93 in1013.5 mb 0.00 in0.0 mm 0.00 in0.0 mm 0.00 in0.0 mm
02:00 PM 101.7°F38.7°C 83.7°F28.7°C 57% 14.5 mph SW23.3 kmh SW 20.6 mph33.2 kmh 29.93 in1013.5 mb 0.00 in0.0 mm 0.00 in0.0 mm 0.00 in0.0 mm
02:05 PM 101.7°F38.7°C 83.7°F28.7°C 57% 12.1 mph SW19.5 kmh SW 20.6 mph33.2 kmh 29.92 in1013.2 mb 0.00 in0.0 mm 0.00 in0.0 mm 0.00 in0.0 mm
02:10 PM 102.0°F38.9°C 83.5°F28.6°C 56% 13.0 mph WSW20.9 kmh WSW 18.3 mph29.5 kmh 29.92 in1013.2 mb 0.00 in0.0 mm 0.00 in0.0 mm 0.00 in0.0 mm
02:15 PM 101.7°F38.7°C 83.1°F28.4°C 56% 14.5 mph WSW23.3 kmh WSW 19.0 mph30.6 kmh 29.92 in1013.2 mb 0.00 in0.0 mm 0.00 in0.0 mm 0.00 in0.0 mm
02:20 PM 101.7°F38.7°C 83.1°F28.4°C 56% 15.9 mph SW25.6 kmh SW 20.6 mph33.2 kmh 29.92 in1013.2 mb 0.00 in0.0 mm 0.00 in0.0 mm 0.00 in0.0 mm
02:25 PM 100.6°F38.1°C 82.1°F27.8°C 56% 13.6 mph SW21.9 kmh SW 20.6 mph33.2 kmh 29.92 in1013.2 mb 0.00 in0.0 mm 0.00 in0.0 mm 0.00 in0.0 mm
02:30 PM 99.9°F37.7°C 82.5°F28.1°C 58% 15.9 mph SW25.6 kmh SW 20.6 mph33.2 kmh 29.91 in1012.9 mb 0.00 in0.0 mm 0.00 in0.0 mm 0.00 in0.0 mm
02:35 PM 100.4°F38.0°C 82.5°F28.1°C 57% 15.2 mph SW24.5 kmh SW 19.7 mph31.7 kmh 29.92 in1013.2 mb 0.00 in0.0 mm 0.00 in0.0 mm 0.00 in0.0 mm
02:40 PM 100.9°F38.3°C 83.0°F28.3°C 57% 13.6 mph SW21.9 kmh SW 19.7 mph31.7 kmh 29.91 in1012.9 mb 0.00 in0.0 mm 0.00 in0.0 mm 0.00 in0.0 mm
02:45 PM 100.6°F38.1°C 82.7°F28.2°C 57% 13.6 mph SW21.9 kmh SW 18.3 mph29.5 kmh 29.91 in1012.9 mb 0.00 in0.0 mm 0.00 in0.0 mm 0.00 in0.0 mm
02:50 PM 100.9°F38.3°C 82.5°F28.1°C 56% 10.7 mph SW17.2 kmh SW 18.3 mph29.5 kmh 29.91 in1012.9 mb 0.00 in0.0 mm 0.00 in0.0 mm 0.00 in0.0 mm
02:55 PM 101.1°F38.4°C 82.1°F27.8°C 55% 12.1 mph SW19.5 kmh SW 22.8 mph36.7 kmh 29.91 in1012.9 mb 0.00 in0.0 mm 0.00 in0.0 mm 0.00 in0.0 mm
03:00 PM 101.1°F38.4°C 82.1°F27.8°C 55% 12.1 mph WSW19.5 kmh WSW 22.8 mph36.7 kmh 29.90 in1012.5 mb 0.00 in0.0 mm 0.00 in0.0 mm 0.00 in0.0 mm
03:05 PM 101.1°F38.4°C 82.1°F27.8°C 55% 10.7 mph WSW17.2 kmh WSW 20.6 mph33.2 kmh 29.90 in1012.5 mb 0.00 in0.0 mm 0.00 in0.0 mm 0.00 in0.0 mm
03:10 PM 100.2°F37.9°C 81.2°F27.3°C 55% 13.6 mph SW21.9 kmh SW 19.0 mph30.6 kmh 29.91 in1012.9 mb 0.00 in0.0 mm 0.00 in0.0 mm 0.00 in0.0 mm
03:15 PM 100.4°F38.0°C 82.0°F27.8°C 56% 13.6 mph SW21.9 kmh SW 17.4 mph28.0 kmh 29.90 in1012.5 mb 0.00 in0.0 mm 0.00 in0.0 mm 0.00 in0.0 mm
03:20 PM 100.6°F38.1°C 81.6°F27.6°C 55% 11.4 mph SW18.3 kmh SW 16.8 mph27.0 kmh 29.91 in1012.9 mb 0.00 in0.0 mm 0.00 in0.0 mm 0.00 in0.0 mm
03:25 PM 100.0°F37.8°C 81.1°F27.3°C 55% 11.4 mph SW18.3 kmh SW 21.3 mph34.3 kmh 29.91 in1012.9 mb 0.00 in0.0 mm 0.00 in0.0 mm 0.00 in0.0 mm
03:30 PM 99.0°F37.2°C 81.2°F27.3°C 57% 11.4 mph SW18.3 kmh SW 21.3 mph34.3 kmh 29.91 in1012.9 mb 0.00 in0.0 mm 0.00 in0.0 mm 0.00 in0.0 mm
03:35 PM 98.2°F36.8°C 80.5°F26.9°C 57% 9.8 mph SW15.8 kmh SW 15.9 mph25.6 kmh 29.90 in1012.5 mb 0.00 in0.0 mm 0.00 in0.0 mm 0.00 in0.0 mm
03:40 PM 97.7°F36.5°C 80.5°F26.9°C 58% 11.4 mph WSW18.3 kmh WSW 15.2 mph24.5 kmh 29.90 in1012.5 mb 0.00 in0.0 mm 0.00 in0.0 mm 0.00 in0.0 mm
03:45 PM 97.7°F36.5°C 80.5°F26.9°C 58% 9.8 mph SW15.8 kmh SW 15.2 mph24.5 kmh 29.89 in1012.2 mb 0.00 in0.0 mm 0.00 in0.0 mm 0.00 in0.0 mm
03:50 PM 99.0°F37.2°C 81.7°F27.6°C 58% 9.8 mph WSW15.8 kmh WSW 17.4 mph28.0 kmh 29.89 in1012.2 mb 0.00 in0.0 mm 0.00 in0.0 mm 0.00 in0.0 mm
03:55 PM 99.9°F37.7°C 81.5°F27.5°C 56% 13.0 mph WSW20.9 kmh WSW 17.4 mph28.0 kmh 29.90 in1012.5 mb 0.00 in0.0 mm 0.00 in0.0 mm 0.00 in0.0 mm
04:00 PM 99.1°F37.3°C 80.8°F27.1°C 56% 13.0 mph SW20.9 kmh SW 17.4 mph28.0 kmh 29.90 in1012.5 mb 0.00 in0.0 mm 0.00 in0.0 mm 0.00 in0.0 mm
04:05 PM 98.1°F36.7°C 80.3°F26.8°C 57% 13.6 mph SW21.9 kmh SW 16.8 mph27.0 kmh 29.90 in1012.5 mb 0.00 in0.0 mm 0.00 in0.0 mm 0.00 in0.0 mm
04:10 PM 97.3°F36.3°C 80.7°F27.1°C 59% 12.1 mph SW19.5 kmh SW 18.3 mph29.5 kmh 29.90 in1012.5 mb 0.00 in0.0 mm 0.00 in0.0 mm 0.00 in0.0 mm
04:15 PM 97.9°F36.6°C 81.2°F27.3°C 59% 13.0 mph SW20.9 kmh SW 18.3 mph29.5 kmh 29.89 in1012.2 mb 0.00 in0.0 mm 0.00 in0.0 mm 0.00 in0.0 mm
04:20 PM 98.6°F37.0°C 81.4°F27.4°C 58% 15.2 mph SW24.5 kmh SW 18.3 mph29.5 kmh 29.89 in1012.2 mb 0.00 in0.0 mm 0.00 in0.0 mm 0.00 in0.0 mm
04:25 PM 98.4°F36.9°C 81.2°F27.3°C 58% 9.8 mph SW15.8 kmh SW 18.3 mph29.5 kmh 29.89 in1012.2 mb 0.00 in0.0 mm 0.00 in0.0 mm 0.00 in0.0 mm
04:30 PM 98.6°F37.0°C 80.8°F27.1°C 57% 13.6 mph SW21.9 kmh SW 18.3 mph29.5 kmh 29.89 in1012.2 mb 0.00 in0.0 mm 0.00 in0.0 mm 0.00 in0.0 mm
04:35 PM 98.2°F36.8°C 81.0°F27.2°C 58% 13.0 mph SW20.9 kmh SW 18.3 mph29.5 kmh 29.88 in1011.9 mb 0.00 in0.0 mm 0.00 in0.0 mm 0.00 in0.0 mm
04:40 PM 98.6°F37.0°C 80.8°F27.1°C 57% 8.3 mph SW13.4 kmh SW 18.3 mph29.5 kmh 29.88 in1011.9 mb 0.00 in0.0 mm 0.00 in0.0 mm 0.00 in0.0 mm
04:45 PM 98.6°F37.0°C 80.8°F27.1°C 57% 10.7 mph SW17.2 kmh SW 16.8 mph27.0 kmh 29.89 in1012.2 mb 0.00 in0.0 mm 0.00 in0.0 mm 0.00 in0.0 mm
04:50 PM 98.1°F36.7°C 80.3°F26.8°C 57% 10.7 mph SW17.2 kmh SW 15.2 mph24.5 kmh 29.88 in1011.9 mb 0.00 in0.0 mm 0.00 in0.0 mm 0.00 in0.0 mm
04:55 PM 97.2°F36.2°C 80.0°F26.7°C 58% 10.7 mph SW17.2 kmh SW 17.4 mph28.0 kmh 29.89 in1012.2 mb 0.00 in0.0 mm 0.00 in0.0 mm 0.00 in0.0 mm
05:00 PM 96.4°F35.8°C 79.9°F26.6°C 59% 11.4 mph SW18.3 kmh SW 17.4 mph28.0 kmh 29.89 in1012.2 mb 0.00 in0.0 mm 0.00 in0.0 mm 0.00 in0.0 mm
05:05 PM 95.5°F35.3°C 79.5°F26.4°C 60% 9.8 mph SW15.8 kmh SW 15.9 mph25.6 kmh 29.89 in1012.2 mb 0.00 in0.0 mm 0.00 in0.0 mm 0.00 in0.0 mm
05:10 PM 95.0°F35.0°C 79.5°F26.4°C 61% 11.4 mph SW18.3 kmh SW 14.5 mph23.3 kmh 29.88 in1011.9 mb 0.00 in0.0 mm 0.00 in0.0 mm 0.00 in0.0 mm
05:15 PM 94.3°F34.6°C 79.3°F26.3°C 62% 10.7 mph SW17.2 kmh SW 13.6 mph21.9 kmh 29.89 in1012.2 mb 0.00 in0.0 mm 0.00 in0.0 mm 0.00 in0.0 mm
05:20 PM 93.7°F34.3°C 79.3°F26.3°C 63% 10.7 mph SW17.2 kmh SW 14.5 mph23.3 kmh 29.88 in1011.9 mb 0.00 in0.0 mm 0.00 in0.0 mm 0.00 in0.0 mm
05:25 PM 93.4°F34.1°C 79.0°F26.1°C 63% 10.7 mph SW17.2 kmh SW 15.9 mph25.6 kmh 29.88 in1011.9 mb 0.00 in0.0 mm 0.00 in0.0 mm 0.00 in0.0 mm
05:30 PM 92.7°F33.7°C 78.8°F26.0°C 64% 7.6 mph SW12.2 kmh SW 15.9 mph25.6 kmh 29.88 in1011.9 mb 0.00 in0.0 mm 0.00 in0.0 mm 0.00 in0.0 mm
05:35 PM 92.3°F33.5°C 78.4°F25.8°C 64% 9.2 mph SW14.8 kmh SW 15.9 mph25.6 kmh 29.88 in1011.9 mb 0.00 in0.0 mm 0.00 in0.0 mm 0.00 in0.0 mm
05:40 PM 91.8°F33.2°C 78.4°F25.8°C 65% 11.4 mph SW18.3 kmh SW 15.9 mph25.6 kmh 29.89 in1012.2 mb 0.00 in0.0 mm 0.00 in0.0 mm 0.00 in0.0 mm
05:45 PM 91.2°F32.9°C 77.9°F25.5°C 65% 19.7 mph SW31.7 kmh SW 32.0 mph51.5 kmh 29.90 in1012.5 mb 0.00 in0.0 mm 0.00 in0.0 mm 0.00 in0.0 mm
05:50 PM 89.8°F32.1°C 77.0°F25.0°C 66% 15.2 mph SW24.5 kmh SW 32.0 mph51.5 kmh 29.90 in1012.5 mb 0.00 in0.0 mm 0.00 in0.0 mm 0.00 in0.0 mm
05:55 PM 88.5°F31.4°C 76.7°F24.8°C 68% 15.2 mph SW24.5 kmh SW 25.1 mph40.4 kmh 29.90 in1012.5 mb 0.00 in0.0 mm 0.00 in0.0 mm 0.00 in0.0 mm
06:00 PM 87.6°F30.9°C 76.7°F24.8°C 70% 9.8 mph SW15.8 kmh SW 19.7 mph31.7 kmh 29.90 in1012.5 mb 0.00 in0.0 mm 0.00 in0.0 mm 0.00 in0.0 mm
06:05 PM 86.9°F30.5°C 76.4°F24.7°C 71% 7.6 mph SW12.2 kmh SW 19.0 mph30.6 kmh 29.90 in1012.5 mb 0.00 in0.0 mm 0.00 in0.0 mm 0.00 in0.0 mm
06:10 PM 86.2°F30.1°C 76.2°F24.6°C 72% 6.0 mph SW9.7 kmh SW 13.6 mph21.9 kmh 29.90 in1012.5 mb 0.01 in0.3 mm 0.12 in3.0 mm 0.01 in0.3 mm
06:15 PM 86.0°F30.0°C 76.0°F24.4°C 72% 6.0 mph WSW9.7 kmh WSW 10.7 mph17.2 kmh 29.90 in1012.5 mb 0.01 in0.3 mm 0.00 in0.0 mm 0.01 in0.3 mm
06:20 PM 85.5°F29.7°C 75.9°F24.4°C 73% 6.9 mph W11.1 kmh W 9.8 mph15.8 kmh 29.90 in1012.5 mb 0.01 in0.3 mm 0.00 in0.0 mm 0.01 in0.3 mm
06:25 PM 84.7°F29.3°C 75.6°F24.2°C 74% 7.6 mph WNW12.2 kmh WNW 12.1 mph19.5 kmh 29.90 in1012.5 mb 0.01 in0.3 mm 0.00 in0.0 mm 0.01 in0.3 mm
06:30 PM 84.4°F29.1°C 75.3°F24.1°C 74% 6.0 mph NW9.7 kmh NW 12.1 mph19.5 kmh 29.90 in1012.5 mb 0.01 in0.3 mm 0.00 in0.0 mm 0.01 in0.3 mm
06:35 PM 84.0°F28.9°C 75.3°F24.1°C 75% 6.0 mph NW9.7 kmh NW 10.7 mph17.2 kmh 29.88 in1011.9 mb 0.01 in0.3 mm 0.00 in0.0 mm 0.01 in0.3 mm
06:40 PM 83.8°F28.8°C 75.5°F24.2°C 76% 6.0 mph NW9.7 kmh NW 10.7 mph17.2 kmh 29.89 in1012.2 mb 0.01 in0.3 mm 0.00 in0.0 mm 0.01 in0.3 mm
06:45 PM 83.7°F28.7°C 75.4°F24.1°C 76% 5.4 mph NNW8.7 kmh NNW 10.7 mph17.2 kmh 29.89 in1012.2 mb 0.01 in0.3 mm 0.00 in0.0 mm 0.01 in0.3 mm
06:50 PM 83.3°F28.5°C 75.0°F23.9°C 76% 3.8 mph NW6.1 kmh NW 9.2 mph14.8 kmh 29.89 in1012.2 mb 0.01 in0.3 mm 0.00 in0.0 mm 0.01 in0.3 mm
06:55 PM 82.9°F28.3°C 74.7°F23.7°C 76% 11.4 mph WSW18.3 kmh WSW 15.2 mph24.5 kmh 29.90 in1012.5 mb 0.01 in0.3 mm 0.00 in0.0 mm 0.01 in0.3 mm
07:00 PM 82.6°F28.1°C 74.7°F23.7°C 77% 12.1 mph SW19.5 kmh SW 16.8 mph27.0 kmh 29.90 in1012.5 mb 0.01 in0.3 mm 0.00 in0.0 mm 0.01 in0.3 mm
07:05 PM 82.2°F27.9°C 74.3°F23.5°C 77% 15.9 mph SW25.6 kmh SW 22.1 mph35.6 kmh 29.90 in1012.5 mb 0.04 in1.0 mm 0.36 in9.1 mm 0.04 in1.0 mm
07:10 PM 81.7°F27.6°C 73.8°F23.2°C 77% 15.9 mph SW25.6 kmh SW 22.1 mph35.6 kmh 29.89 in1012.2 mb 0.06 in1.5 mm 0.24 in6.1 mm 0.07 in1.8 mm
07:15 PM 81.3°F27.4°C 73.5°F23.1°C 77% 12.1 mph SW19.5 kmh SW 22.1 mph35.6 kmh 29.90 in1012.5 mb 0.14 in3.6 mm 0.96 in24.4 mm 0.15 in3.8 mm
07:20 PM 80.8°F27.1°C 73.3°F22.9°C 78% 6.9 mph SW11.1 kmh SW 19.7 mph31.7 kmh 29.90 in1012.5 mb 0.19 in4.8 mm 0.60 in15.2 mm 0.20 in5.1 mm
07:25 PM 80.6°F27.0°C 73.2°F22.9°C 78% 5.4 mph SW8.7 kmh SW 15.9 mph25.6 kmh 29.90 in1012.5 mb 0.20 in5.1 mm 0.12 in3.0 mm 0.21 in5.3 mm
07:30 PM 80.2°F26.8°C 72.8°F22.7°C 78% 9.2 mph SW14.8 kmh SW 13.0 mph20.9 kmh 29.91 in1012.9 mb 0.20 in5.1 mm 0.00 in0.0 mm 0.21 in5.3 mm
07:35 PM 80.2°F26.8°C 72.8°F22.7°C 78% 7.6 mph SSW12.2 kmh SSW 13.0 mph20.9 kmh 29.91 in1012.9 mb 0.20 in5.1 mm 0.00 in0.0 mm 0.21 in5.3 mm
07:40 PM 80.2°F26.8°C 73.2°F22.9°C 79% 12.1 mph SSW19.5 kmh SSW 15.2 mph24.5 kmh 29.92 in1013.2 mb 0.21 in5.3 mm 0.12 in3.0 mm 0.22 in5.6 mm
07:45 PM 80.2°F26.8°C 73.2°F22.9°C 79% 17.4 mph SW28.0 kmh SW 23.5 mph37.8 kmh 29.93 in1013.5 mb 0.22 in5.6 mm 0.12 in3.0 mm 0.24 in6.1 mm
07:50 PM 79.9°F26.6°C 72.8°F22.7°C 79% 15.9 mph SW25.6 kmh SW 23.5 mph37.8 kmh 29.93 in1013.5 mb 0.22 in5.6 mm 0.00 in0.0 mm 0.24 in6.1 mm
07:55 PM 79.7°F26.5°C 72.7°F22.6°C 79% 8.3 mph SW13.4 kmh SW 21.3 mph34.3 kmh 29.93 in1013.5 mb 0.22 in5.6 mm 0.00 in0.0 mm 0.24 in6.1 mm
08:00 PM 79.5°F26.4°C 72.5°F22.5°C 79% 11.4 mph SW18.3 kmh SW 19.7 mph31.7 kmh 29.93 in1013.5 mb 0.24 in6.1 mm 0.02 in0.5 mm 0.25 in6.4 mm
08:05 PM 79.2°F26.2°C 72.1°F22.3°C 79% 13.6 mph SW21.9 kmh SW 20.6 mph33.2 kmh 29.93 in1013.5 mb 0.20 in5.1 mm 0.00 in0.0 mm 0.25 in6.4 mm
08:10 PM 79.0°F26.1°C 72.3°F22.4°C 80% 13.0 mph SW20.9 kmh SW 20.6 mph33.2 kmh 29.93 in1013.5 mb 0.17 in4.3 mm 0.00 in0.0 mm 0.25 in6.4 mm
08:15 PM 78.8°F26.0°C 72.2°F22.3°C 80% 9.2 mph SW14.8 kmh SW 17.4 mph28.0 kmh 29.93 in1013.5 mb 0.09 in2.3 mm 0.00 in0.0 mm 0.25 in6.4 mm
08:20 PM 78.6°F25.9°C 72.4°F22.4°C 81% 6.0 mph SW9.7 kmh SW 17.4 mph28.0 kmh 29.93 in1013.5 mb 0.05 in1.3 mm 0.00 in0.0 mm 0.25 in6.4 mm
08:25 PM 78.6°F25.9°C 72.4°F22.4°C 81% 5.4 mph SW8.7 kmh SW 13.0 mph20.9 kmh 29.93 in1013.5 mb 0.04 in1.0 mm 0.00 in0.0 mm 0.25 in6.4 mm
08:30 PM 78.4°F25.8°C 72.2°F22.3°C 81% 6.0 mph SW9.7 kmh SW 10.7 mph17.2 kmh 29.93 in1013.5 mb 0.04 in1.0 mm 0.00 in0.0 mm 0.25 in6.4 mm
08:35 PM 78.3°F25.7°C 72.0°F22.2°C 81% 3.8 mph SW6.1 kmh SW 9.8 mph15.8 kmh 29.93 in1013.5 mb 0.04 in1.0 mm 0.00 in0.0 mm 0.25 in6.4 mm
08:40 PM 78.3°F25.7°C 72.0°F22.2°C 81% 2.2 mph WSW3.5 kmh WSW 8.3 mph13.4 kmh 29.93 in1013.5 mb 0.02 in0.5 mm 0.00 in0.0 mm 0.25 in6.4 mm
08:45 PM 78.1°F25.6°C 71.8°F22.1°C 81% 3.1 mph WSW5.0 kmh WSW 6.0 mph9.7 kmh 29.92 in1013.2 mb 0.01 in0.3 mm 0.00 in0.0 mm 0.25 in6.4 mm
08:50 PM 78.1°F25.6°C 71.8°F22.1°C 81% 2.2 mph WSW3.5 kmh WSW 4.5 mph7.2 kmh 29.92 in1013.2 mb 0.01 in0.3 mm 0.00 in0.0 mm 0.25 in6.4 mm
08:55 PM 78.1°F25.6°C 71.8°F22.1°C 81% 3.1 mph WSW5.0 kmh WSW 4.5 mph7.2 kmh 29.92 in1013.2 mb 0.01 in0.3 mm 0.00 in0.0 mm 0.25 in6.4 mm
09:00 PM 77.9°F25.5°C 71.6°F22.0°C 81% 3.1 mph WSW5.0 kmh WSW 4.5 mph7.2 kmh 29.92 in1013.2 mb 0.00 in0.0 mm 0.00 in0.0 mm 0.25 in6.4 mm
09:05 PM 77.9°F25.5°C 71.6°F22.0°C 81% 4.5 mph SSW7.2 kmh SSW 5.4 mph8.7 kmh 29.91 in1012.9 mb 0.00 in0.0 mm 0.00 in0.0 mm 0.25 in6.4 mm
09:10 PM 77.9°F25.5°C 71.6°F22.0°C 81% 3.8 mph S6.1 kmh S 5.4 mph8.7 kmh 29.92 in1013.2 mb 0.00 in0.0 mm 0.00 in0.0 mm 0.25 in6.4 mm
09:15 PM 77.7°F25.4°C 71.5°F21.9°C 81% 3.8 mph S6.1 kmh S 5.4 mph8.7 kmh 29.92 in1013.2 mb 0.00 in0.0 mm 0.00 in0.0 mm 0.25 in6.4 mm
09:20 PM 77.7°F25.4°C 71.5°F21.9°C 81% 3.8 mph S6.1 kmh S 5.4 mph8.7 kmh 29.92 in1013.2 mb 0.00 in0.0 mm 0.00 in0.0 mm 0.25 in6.4 mm
09:25 PM 77.5°F25.3°C 71.3°F21.8°C 81% 3.1 mph S5.0 kmh S 4.5 mph7.2 kmh 29.91 in1012.9 mb 0.00 in0.0 mm 0.00 in0.0 mm 0.25 in6.4 mm
09:30 PM 77.7°F25.4°C 71.5°F21.9°C 81% 1.6 mph S2.6 kmh S 4.5 mph7.2 kmh 29.91 in1012.9 mb 0.00 in0.0 mm 0.00 in0.0 mm 0.25 in6.4 mm
09:35 PM 77.5°F25.3°C 71.3°F21.8°C 81% 1.6 mph SSW2.6 kmh SSW 4.5 mph7.2 kmh 29.91 in1012.9 mb 0.00 in0.0 mm 0.00 in0.0 mm 0.25 in6.4 mm
09:40 PM 77.5°F25.3°C 71.3°F21.8°C 81% Calm Calm 2.2 mph3.5 kmh 29.92 in1013.2 mb 0.00 in0.0 mm 0.00 in0.0 mm 0.25 in6.4 mm
09:45 PM 77.4°F25.2°C 71.1°F21.7°C 81% 1.6 mph SSW2.6 kmh SSW 2.2 mph3.5 kmh 29.92 in1013.2 mb 0.00 in0.0 mm 0.00 in0.0 mm 0.25 in6.4 mm
09:50 PM 77.4°F25.2°C 71.1°F21.7°C 81% 1.6 mph S2.6 kmh S 3.1 mph5.0 kmh 29.91 in1012.9 mb 0.00 in0.0 mm 0.00 in0.0 mm 0.25 in6.4 mm
09:55 PM 77.4°F25.2°C 71.1°F21.7°C 81% 2.2 mph S3.5 kmh S 3.8 mph6.1 kmh 29.92 in1013.2 mb 0.00 in0.0 mm 0.00 in0.0 mm 0.25 in6.4 mm
10:00 PM 77.4°F25.2°C 71.1°F21.7°C 81% 3.1 mph S5.0 kmh S 3.8 mph6.1 kmh 29.92 in1013.2 mb 0.00 in0.0 mm 0.00 in0.0 mm 0.25 in6.4 mm
10:05 PM 77.4°F25.2°C 71.1°F21.7°C 81% 3.8 mph S6.1 kmh S 4.5 mph7.2 kmh 29.92 in1013.2 mb 0.00 in0.0 mm 0.00 in0.0 mm 0.25 in6.4 mm
10:10 PM 77.5°F25.3°C 71.3°F21.8°C 81% 5.4 mph S8.7 kmh S 6.0 mph9.7 kmh 29.93 in1013.5 mb 0.00 in0.0 mm 0.00 in0.0 mm 0.25 in6.4 mm
10:15 PM 77.5°F25.3°C 71.3°F21.8°C 81% 2.2 mph S3.5 kmh S 6.0 mph9.7 kmh 29.93 in1013.5 mb 0.00 in0.0 mm 0.00 in0.0 mm 0.25 in6.4 mm
10:20 PM 77.5°F25.3°C 71.7°F22.1°C 82% 2.2 mph SSE3.5 kmh SSE 6.0 mph9.7 kmh 29.93 in1013.5 mb 0.00 in0.0 mm 0.00 in0.0 mm 0.25 in6.4 mm
10:25 PM 77.5°F25.3°C 71.3°F21.8°C 81% 1.6 mph SE2.6 kmh SE 3.8 mph6.1 kmh 29.94 in1013.9 mb 0.00 in0.0 mm 0.00 in0.0 mm 0.25 in6.4 mm
10:30 PM 77.7°F25.4°C 71.5°F21.9°C 81% 0.7 mph SE1.1 kmh SE 3.8 mph6.1 kmh 29.94 in1013.9 mb 0.00 in0.0 mm 0.00 in0.0 mm 0.25 in6.4 mm
10:35 PM 77.7°F25.4°C 71.5°F21.9°C 81% 0.7 mph SE1.1 kmh SE 3.1 mph5.0 kmh 29.95 in1014.2 mb 0.00 in0.0 mm 0.00 in0.0 mm 0.25 in6.4 mm
10:40 PM 77.7°F25.4°C 71.5°F21.9°C 81% 0.7 mph E1.1 kmh E 1.6 mph2.6 kmh 29.94 in1013.9 mb 0.00 in0.0 mm 0.00 in0.0 mm 0.25 in6.4 mm
10:45 PM 77.7°F25.4°C 71.5°F21.9°C 81% 2.2 mph NE3.5 kmh NE 3.1 mph5.0 kmh 29.94 in1013.9 mb 0.00 in0.0 mm 0.00 in0.0 mm 0.25 in6.4 mm
10:50 PM 77.7°F25.4°C 71.8°F22.1°C 82% 2.2 mph NE3.5 kmh NE 3.8 mph6.1 kmh 29.95 in1014.2 mb 0.00 in0.0 mm 0.00 in0.0 mm 0.25 in6.4 mm
10:55 PM 77.9°F25.5°C 72.0°F22.2°C 82% 1.6 mph NE2.6 kmh NE 3.8 mph6.1 kmh 29.95 in1014.2 mb 0.00 in0.0 mm 0.00 in0.0 mm 0.25 in6.4 mm
11:00 PM 77.9°F25.5°C 72.0°F22.2°C 82% 1.6 mph NE2.6 kmh NE 3.1 mph5.0 kmh 29.95 in1014.2 mb 0.00 in0.0 mm 0.00 in0.0 mm 0.25 in6.4 mm
11:05 PM 77.9°F25.5°C 72.0°F22.2°C 82% 3.1 mph N5.0 kmh N 3.8 mph6.1 kmh 29.95 in1014.2 mb 0.00 in0.0 mm 0.00 in0.0 mm 0.25 in6.4 mm
11:10 PM 77.9°F25.5°C 72.4°F22.4°C 83% 1.6 mph N2.6 kmh N 3.8 mph6.1 kmh 29.94 in1013.9 mb 0.00 in0.0 mm 0.00 in0.0 mm 0.25 in6.4 mm
11:15 PM 78.1°F25.6°C 72.5°F22.5°C 83% 1.6 mph NNE2.6 kmh NNE 3.8 mph6.1 kmh 29.94 in1013.9 mb 0.00 in0.0 mm 0.00 in0.0 mm 0.25 in6.4 mm
11:20 PM 78.3°F25.7°C 72.7°F22.6°C 83% 1.6 mph E2.6 kmh E 2.2 mph3.5 kmh 29.95 in1014.2 mb 0.00 in0.0 mm 0.00 in0.0 mm 0.25 in6.4 mm
11:25 PM 78.3°F25.7°C 72.4°F22.4°C 82% 5.4 mph SE8.7 kmh SE 6.9 mph11.1 kmh 29.95 in1014.2 mb 0.00 in0.0 mm 0.00 in0.0 mm 0.25 in6.4 mm
11:30 PM 78.3°F25.7°C 72.4°F22.4°C 82% 4.5 mph SE7.2 kmh SE 7.6 mph12.2 kmh 29.95 in1014.2 mb 0.00 in0.0 mm 0.00 in0.0 mm 0.25 in6.4 mm
11:35 PM 78.3°F25.7°C 72.4°F22.4°C 82% 3.1 mph SE5.0 kmh SE 7.6 mph12.2 kmh 29.95 in1014.2 mb 0.00 in0.0 mm 0.00 in0.0 mm 0.25 in6.4 mm
11:40 PM 78.3°F25.7°C 72.4°F22.4°C 82% 3.1 mph ESE5.0 kmh ESE 7.6 mph12.2 kmh 29.95 in1014.2 mb 0.00 in0.0 mm 0.00 in0.0 mm 0.25 in6.4 mm
11:45 PM 78.3°F25.7°C 72.7°F22.6°C 83% 3.1 mph E5.0 kmh E 6.9 mph11.1 kmh 29.95 in1014.2 mb 0.00 in0.0 mm 0.00 in0.0 mm 0.25 in6.4 mm
11:50 PM 78.3°F25.7°C 72.7°F22.6°C 83% 2.2 mph E3.5 kmh E 5.4 mph8.7 kmh 29.95 in1014.2 mb 0.00 in0.0 mm 0.00 in0.0 mm 0.25 in6.4 mm
11:55 PM 78.3°F25.7°C 72.7°F22.6°C 83% 2.2 mph E3.5 kmh E 5.4 mph8.7 kmh 29.95 in1014.2 mb 0.00 in0.0 mm 0.00 in0.0 mm 0.25 in6.4 mm